IGO0925 VERC-VEPT
Flight info
| Callsign | IGO0925 |
|---|---|
| Flight time | 0h 33m |
| Altitude | 16000 |
| Route | RRC W106 PPT |
| Aircraft | A320/M-SDE3FGHIRWY/LB1 |
Departure
| Time | 2026-05-08 15:24 |
|---|---|
| Airport | Birsa Munda Airport (VERC) |
Arrival
| Time | 2026-05-08 15:57 |
|---|---|
| Airport | Jay Prakash Narayan Airport (VEPT) |
| Time | Latitude | Longitude | Altitude | Speed | Heading |
|---|---|---|---|---|---|
| 2026-05-08 15:02 | 23.31669 | 85.32450 | 2120 ft | 0 kts | 39° |
| 2026-05-08 15:14 | 23.31657 | 85.32440 | 2122 ft | 2 kts | 31° |
| 2026-05-08 15:14 | 23.31642 | 85.32431 | 2120 ft | 2 kts | 20° |
| 2026-05-08 15:14 | 23.31626 | 85.32427 | 2121 ft | 2 kts | 356° |
| 2026-05-08 15:15 | 23.31610 | 85.32430 | 2120 ft | 2 kts | 327° |
| 2026-05-08 15:15 | 23.31598 | 85.32441 | 2120 ft | 2 kts | 311° |
| 2026-05-08 15:15 | 23.31594 | 85.32445 | 2121 ft | 1 kts | 310° |
| 2026-05-08 15:15 | 23.31594 | 85.32446 | 2121 ft | 0 kts | 310° |
| 2026-05-08 15:17 | 23.31594 | 85.32445 | 2121 ft | 0 kts | 310° |
| 2026-05-08 15:17 | 23.31600 | 85.32438 | 2119 ft | 3 kts | 311° |
| 2026-05-08 15:18 | 23.31610 | 85.32419 | 2121 ft | 3 kts | 297° |
| 2026-05-08 15:18 | 23.31616 | 85.32397 | 2122 ft | 3 kts | 277° |
| 2026-05-08 15:18 | 23.31596 | 85.32349 | 2122 ft | 17 kts | 226° |
| 2026-05-08 15:18 | 23.31536 | 85.32290 | 2122 ft | 9 kts | 221° |
| 2026-05-08 15:19 | 23.31483 | 85.32240 | 2123 ft | 11 kts | 221° |
| 2026-05-08 15:19 | 23.31480 | 85.32178 | 2123 ft | 9 kts | 303° |
| 2026-05-08 15:19 | 23.31531 | 85.32112 | 2123 ft | 13 kts | 311° |
| 2026-05-08 15:19 | 23.31592 | 85.32037 | 2127 ft | 13 kts | 311° |
| 2026-05-08 15:20 | 23.31656 | 85.31958 | 2129 ft | 15 kts | 312° |
| 2026-05-08 15:20 | 23.31727 | 85.31872 | 2131 ft | 16 kts | 312° |
| 2026-05-08 15:20 | 23.31800 | 85.31782 | 2134 ft | 16 kts | 310° |
| 2026-05-08 15:20 | 23.31873 | 85.31693 | 2139 ft | 16 kts | 311° |
| 2026-05-08 15:21 | 23.31949 | 85.31600 | 2143 ft | 17 kts | 312° |
| 2026-05-08 15:21 | 23.32030 | 85.31504 | 2147 ft | 17 kts | 313° |
| 2026-05-08 15:21 | 23.32088 | 85.31419 | 2148 ft | 9 kts | 307° |
| 2026-05-08 15:21 | 23.32127 | 85.31382 | 2151 ft | 14 kts | 308° |
| 2026-05-08 15:22 | 23.32200 | 85.31290 | 2153 ft | 17 kts | 311° |
| 2026-05-08 15:22 | 23.32289 | 85.31237 | 2155 ft | 9 kts | 337° |
| 2026-05-08 15:22 | 23.32270 | 85.31212 | 2150 ft | 8 kts | 166° |
| 2026-05-08 15:22 | 23.32245 | 85.31237 | 2150 ft | 2 kts | 131° |
| 2026-05-08 15:23 | 23.32226 | 85.31261 | 2154 ft | 7 kts | 131° |
| 2026-05-08 15:23 | 23.32133 | 85.31375 | 2151 ft | 52 kts | 131° |
| 2026-05-08 15:23 | 23.31727 | 85.31873 | 2131 ft | 120 kts | 132° |
| 2026-05-08 15:23 | 23.31066 | 85.32677 | 2156 ft | 164 kts | 132° |
| 2026-05-08 15:24 | 23.30327 | 85.33585 | 2934 ft | 159 kts | 133° |
| 2026-05-08 15:24 | 23.29595 | 85.34495 | 3576 ft | 160 kts | 133° |
| 2026-05-08 15:24 | 23.28892 | 85.35503 | 3922 ft | 180 kts | 117° |
| 2026-05-08 15:24 | 23.28816 | 85.36894 | 4250 ft | 200 kts | 69° |
| 2026-05-08 15:25 | 23.29771 | 85.38058 | 4536 ft | 220 kts | 22° |
| 2026-05-08 15:25 | 23.31321 | 85.38249 | 4835 ft | 238 kts | 347° |
| 2026-05-08 15:25 | 23.32979 | 85.37730 | 5258 ft | 260 kts | 336° |
| 2026-05-08 15:25 | 23.34707 | 85.36979 | 5936 ft | 273 kts | 334° |
| 2026-05-08 15:26 | 23.36492 | 85.36185 | 6816 ft | 278 kts | 335° |
| 2026-05-08 15:26 | 23.38305 | 85.35424 | 7706 ft | 281 kts | 336° |
| 2026-05-08 15:26 | 23.40159 | 85.34697 | 8647 ft | 283 kts | 338° |
| 2026-05-08 15:26 | 23.42030 | 85.34005 | 9593 ft | 285 kts | 338° |
| 2026-05-08 15:27 | 23.43934 | 85.33324 | 10297 ft | 296 kts | 339° |
| 2026-05-08 15:27 | 23.45970 | 85.32609 | 10666 ft | 316 kts | 339° |
| 2026-05-08 15:27 | 23.48097 | 85.31873 | 11338 ft | 323 kts | 339° |
| 2026-05-08 15:27 | 23.50250 | 85.31134 | 12119 ft | 327 kts | 339° |
| 2026-05-08 15:28 | 23.52423 | 85.30390 | 12911 ft | 330 kts | 339° |
| 2026-05-08 15:28 | 23.54625 | 85.29634 | 13719 ft | 333 kts | 339° |
| 2026-05-08 15:28 | 23.56844 | 85.28868 | 14410 ft | 336 kts | 339° |
| 2026-05-08 15:28 | 23.59088 | 85.28090 | 15062 ft | 340 kts | 339° |
| 2026-05-08 15:29 | 23.61355 | 85.27303 | 15674 ft | 345 kts | 339° |
| 2026-05-08 15:29 | 23.63654 | 85.26505 | 15931 ft | 348 kts | 339° |
| 2026-05-08 15:29 | 23.65943 | 85.25714 | 15992 ft | 339 kts | 339° |
| 2026-05-08 15:29 | 23.68171 | 85.24946 | 16002 ft | 334 kts | 339° |
| 2026-05-08 15:30 | 23.70378 | 85.24181 | 16000 ft | 332 kts | 339° |
| 2026-05-08 15:30 | 23.72576 | 85.23418 | 16000 ft | 332 kts | 339° |
| 2026-05-08 15:30 | 23.74781 | 85.22651 | 16000 ft | 332 kts | 339° |
| 2026-05-08 15:30 | 23.76977 | 85.21886 | 15998 ft | 332 kts | 339° |
| 2026-05-08 15:31 | 23.79173 | 85.21122 | 15996 ft | 332 kts | 339° |
| 2026-05-08 15:31 | 23.81371 | 85.20359 | 15993 ft | 332 kts | 339° |
| 2026-05-08 15:31 | 23.83578 | 85.19592 | 15992 ft | 332 kts | 339° |
| 2026-05-08 15:31 | 23.85773 | 85.18826 | 15992 ft | 331 kts | 338° |
| 2026-05-08 15:32 | 23.87970 | 85.18058 | 15990 ft | 332 kts | 338° |
| 2026-05-08 15:32 | 23.90170 | 85.17288 | 15996 ft | 332 kts | 338° |
| 2026-05-08 15:32 | 23.92369 | 85.16517 | 15998 ft | 332 kts | 339° |
| 2026-05-08 15:32 | 23.94569 | 85.15750 | 16001 ft | 333 kts | 339° |
| 2026-05-08 15:33 | 23.96782 | 85.15009 | 16003 ft | 333 kts | 340° |
| 2026-05-08 15:33 | 23.99033 | 85.14359 | 16002 ft | 334 kts | 342° |
| 2026-05-08 15:33 | 24.01266 | 85.13775 | 16005 ft | 335 kts | 343° |
| 2026-05-08 15:33 | 24.03534 | 85.13203 | 16004 ft | 335 kts | 343° |
| 2026-05-08 15:34 | 24.05802 | 85.12632 | 16002 ft | 334 kts | 343° |
| 2026-05-08 15:34 | 24.08065 | 85.12052 | 15998 ft | 334 kts | 342° |
| 2026-05-08 15:34 | 24.10320 | 85.11461 | 15997 ft | 334 kts | 342° |
| 2026-05-08 15:34 | 24.12577 | 85.10863 | 15995 ft | 333 kts | 342° |
| 2026-05-08 15:35 | 24.14833 | 85.10261 | 15993 ft | 333 kts | 342° |
| 2026-05-08 15:35 | 24.17084 | 85.09657 | 15992 ft | 333 kts | 342° |
| 2026-05-08 15:35 | 24.19337 | 85.09053 | 15990 ft | 333 kts | 342° |
| 2026-05-08 15:35 | 24.21521 | 85.08466 | 15985 ft | 333 kts | 342° |
| 2026-05-08 15:36 | 24.23833 | 85.07845 | 15984 ft | 333 kts | 342° |
| 2026-05-08 15:36 | 24.26081 | 85.07244 | 15983 ft | 333 kts | 342° |
| 2026-05-08 15:36 | 24.28329 | 85.06640 | 15984 ft | 333 kts | 342° |
| 2026-05-08 15:36 | 24.30578 | 85.06035 | 15979 ft | 333 kts | 342° |
| 2026-05-08 15:37 | 24.32821 | 85.05435 | 15979 ft | 333 kts | 342° |
| 2026-05-08 15:37 | 24.35074 | 85.04833 | 15977 ft | 333 kts | 342° |
| 2026-05-08 15:37 | 24.37324 | 85.04231 | 15975 ft | 333 kts | 342° |
| 2026-05-08 15:37 | 24.39564 | 85.03631 | 15967 ft | 332 kts | 342° |
| 2026-05-08 15:38 | 24.41813 | 85.03030 | 15963 ft | 332 kts | 342° |
| 2026-05-08 15:38 | 24.44063 | 85.02428 | 15956 ft | 332 kts | 342° |
| 2026-05-08 15:38 | 24.46308 | 85.01824 | 15944 ft | 332 kts | 342° |
| 2026-05-08 15:38 | 24.48552 | 85.01219 | 15939 ft | 332 kts | 342° |
| 2026-05-08 15:39 | 24.50790 | 85.00615 | 15929 ft | 332 kts | 342° |
| 2026-05-08 15:39 | 24.53040 | 85.00008 | 15925 ft | 332 kts | 342° |
| 2026-05-08 15:39 | 24.55286 | 84.99405 | 15921 ft | 332 kts | 342° |
| 2026-05-08 15:39 | 24.57526 | 84.98807 | 15915 ft | 332 kts | 342° |
| 2026-05-08 15:40 | 24.59767 | 84.98209 | 15910 ft | 332 kts | 342° |
| 2026-05-08 15:40 | 24.62012 | 84.97606 | 15904 ft | 332 kts | 342° |
| 2026-05-08 15:40 | 24.64258 | 84.97001 | 15898 ft | 332 kts | 342° |
| 2026-05-08 15:40 | 24.66494 | 84.96399 | 15896 ft | 332 kts | 342° |
| 2026-05-08 15:41 | 24.68735 | 84.95794 | 15892 ft | 331 kts | 342° |
| 2026-05-08 15:41 | 24.70973 | 84.95188 | 15895 ft | 331 kts | 342° |
| 2026-05-08 15:41 | 24.73215 | 84.94582 | 15895 ft | 331 kts | 342° |
| 2026-05-08 15:41 | 24.75500 | 84.94211 | 15895 ft | 335 kts | 352° |
| 2026-05-08 15:42 | 24.77834 | 84.94045 | 15894 ft | 336 kts | 352° |
| 2026-05-08 15:42 | 24.80159 | 84.93876 | 15896 ft | 335 kts | 352° |
| 2026-05-08 15:42 | 24.82516 | 84.93701 | 15874 ft | 344 kts | 352° |
| 2026-05-08 15:42 | 24.84907 | 84.93524 | 15759 ft | 338 kts | 352° |
| 2026-05-08 15:43 | 24.87224 | 84.93358 | 15018 ft | 331 kts | 352° |
| 2026-05-08 15:43 | 24.89507 | 84.93193 | 14301 ft | 326 kts | 352° |
| 2026-05-08 15:43 | 24.91733 | 84.93032 | 13886 ft | 312 kts | 351° |
| 2026-05-08 15:43 | 24.93854 | 84.92880 | 13508 ft | 299 kts | 351° |
| 2026-05-08 15:44 | 24.95887 | 84.92732 | 13141 ft | 287 kts | 351° |
| 2026-05-08 15:44 | 24.97839 | 84.92589 | 12793 ft | 275 kts | 351° |
| 2026-05-08 15:44 | 24.99697 | 84.92453 | 12464 ft | 270 kts | 351° |
| 2026-05-08 15:44 | 25.01569 | 84.92311 | 12129 ft | 270 kts | 351° |
| 2026-05-08 15:45 | 25.03455 | 84.92168 | 11791 ft | 273 kts | 351° |
| 2026-05-08 15:45 | 25.05375 | 84.92022 | 11499 ft | 271 kts | 351° |
| 2026-05-08 15:45 | 25.07213 | 84.91887 | 11185 ft | 268 kts | 351° |
| 2026-05-08 15:45 | 25.09058 | 84.91751 | 10804 ft | 264 kts | 351° |
| 2026-05-08 15:46 | 25.10882 | 84.91617 | 10466 ft | 262 kts | 351° |
| 2026-05-08 15:46 | 25.12695 | 84.91484 | 10137 ft | 261 kts | 352° |
| 2026-05-08 15:46 | 25.14509 | 84.91351 | 9807 ft | 263 kts | 352° |
| 2026-05-08 15:46 | 25.16342 | 84.91216 | 9449 ft | 264 kts | 352° |
| 2026-05-08 15:47 | 25.18168 | 84.91081 | 9110 ft | 264 kts | 352° |
| 2026-05-08 15:47 | 25.20005 | 84.90944 | 8774 ft | 265 kts | 352° |
| 2026-05-08 15:47 | 25.21827 | 84.90808 | 8528 ft | 261 kts | 353° |
| 2026-05-08 15:47 | 25.23620 | 84.90676 | 8380 ft | 254 kts | 353° |
| 2026-05-08 15:48 | 25.26967 | 84.90438 | 7858 ft | 233 kts | 353° |
| 2026-05-08 15:48 | 25.28573 | 84.90321 | 7402 ft | 232 kts | 353° |
| 2026-05-08 15:48 | 25.30185 | 84.90200 | 6967 ft | 232 kts | 354° |
| 2026-05-08 15:49 | 25.31800 | 84.90078 | 6632 ft | 234 kts | 354° |
| 2026-05-08 15:49 | 25.33436 | 84.89956 | 6318 ft | 236 kts | 354° |
| 2026-05-08 15:49 | 25.35076 | 84.89834 | 5998 ft | 236 kts | 355° |
| 2026-05-08 15:49 | 25.36714 | 84.89712 | 5693 ft | 236 kts | 355° |
| 2026-05-08 15:50 | 25.38350 | 84.89590 | 5381 ft | 235 kts | 355° |
| 2026-05-08 15:50 | 25.39975 | 84.89469 | 5130 ft | 232 kts | 355° |
| 2026-05-08 15:50 | 25.41578 | 84.89348 | 4877 ft | 230 kts | 356° |
| 2026-05-08 15:50 | 25.43170 | 84.89231 | 4590 ft | 229 kts | 356° |
| 2026-05-08 15:51 | 25.44762 | 84.89114 | 4283 ft | 228 kts | 357° |
| 2026-05-08 15:51 | 25.46332 | 84.88999 | 3985 ft | 223 kts | 357° |
| 2026-05-08 15:51 | 25.47864 | 84.88884 | 3709 ft | 220 kts | 357° |
| 2026-05-08 15:51 | 25.49390 | 84.88771 | 3440 ft | 217 kts | 357° |
| 2026-05-08 15:52 | 25.50835 | 84.88876 | 3151 ft | 202 kts | 20° |
| 2026-05-08 15:52 | 25.51961 | 84.89628 | 3024 ft | 181 kts | 47° |
| 2026-05-08 15:52 | 25.52618 | 84.90733 | 2846 ft | 166 kts | 71° |
| 2026-05-08 15:52 | 25.53031 | 84.91906 | 2733 ft | 166 kts | 71° |
| 2026-05-08 15:53 | 25.53448 | 84.93070 | 2618 ft | 157 kts | 71° |
| 2026-05-08 15:53 | 25.53836 | 84.94144 | 2497 ft | 146 kts | 71° |
| 2026-05-08 15:53 | 25.54205 | 84.95168 | 2420 ft | 142 kts | 72° |
| 2026-05-08 15:53 | 25.54568 | 84.96174 | 2312 ft | 140 kts | 72° |
| 2026-05-08 15:54 | 25.54926 | 84.97169 | 2212 ft | 139 kts | 72° |
| 2026-05-08 15:54 | 25.55282 | 84.98162 | 2042 ft | 138 kts | 72° |
| 2026-05-08 15:54 | 25.55638 | 84.99152 | 1846 ft | 137 kts | 72° |
| 2026-05-08 15:54 | 25.55991 | 85.00133 | 1682 ft | 137 kts | 72° |
| 2026-05-08 15:55 | 25.56341 | 85.01109 | 1500 ft | 136 kts | 71° |
| 2026-05-08 15:55 | 25.57040 | 85.03053 | 1147 ft | 137 kts | 71° |
| 2026-05-08 15:55 | 25.57393 | 85.04035 | 985 ft | 137 kts | 71° |
| 2026-05-08 15:56 | 25.57742 | 85.05005 | 805 ft | 136 kts | 68° |
| 2026-05-08 15:56 | 25.58086 | 85.05967 | 631 ft | 136 kts | 69° |
| 2026-05-08 15:56 | 25.58425 | 85.06940 | 464 ft | 135 kts | 69° |
| 2026-05-08 15:56 | 25.58778 | 85.07905 | 270 ft | 135 kts | 67° |
| 2026-05-08 15:57 | 25.59116 | 85.08842 | 182 ft | 119 kts | 69° |
| 2026-05-08 15:57 | 25.59272 | 85.09287 | 181 ft | 35 kts | 68° |
| 2026-05-08 15:57 | 25.59322 | 85.09420 | 181 ft | 17 kts | 67° |
| 2026-05-08 15:57 | 25.59358 | 85.09495 | 181 ft | 6 kts | 13° |
| 2026-05-08 15:58 | 25.59401 | 85.09469 | 181 ft | 9 kts | 322° |
| 2026-05-08 15:58 | 25.59451 | 85.09413 | 181 ft | 12 kts | 311° |
| 2026-05-08 15:58 | 25.59462 | 85.09371 | 181 ft | 7 kts | 267° |
| 2026-05-08 15:58 | 25.59449 | 85.09311 | 181 ft | 9 kts | 251° |
| 2026-05-08 15:59 | 25.59424 | 85.09233 | 181 ft | 12 kts | 250° |
| 2026-05-08 15:59 | 25.59401 | 85.09165 | 181 ft | 6 kts | 269° |
| 2026-05-08 15:59 | 25.59398 | 85.09156 | 181 ft | 2 kts | 244° |
| 2026-05-08 15:59 | 25.59379 | 85.09149 | 181 ft | 4 kts | 193° |
| 2026-05-08 16:00 | 25.59350 | 85.09123 | 181 ft | 7 kts | 248° |
| 2026-05-08 16:00 | 25.59353 | 85.09113 | 181 ft | 1 kts | 313° |
| 2026-05-08 16:00 | 25.59367 | 85.09105 | 181 ft | 4 kts | 330° |
| 2026-05-08 16:00 | 25.59385 | 85.09096 | 181 ft | 1 kts | 338° |
| 2026-05-08 16:01 | 25.59390 | 85.09094 | 181 ft | 0 kts | 340° |
| 2026-05-08 16:03 | 25.59391 | 85.09094 | 181 ft | 0 kts | 340° |